Dover, Michigan
Current Conditions -  °F | °C
As of 11:53 AM on Saturday 25 Oct 2014 (Local Time) from KARB Reporting Station
Overcast Overcast  
Wind Chill: 60°   Ceiling: 1700
Heat Index: 60°   Visibility: 7mi
Dew Point: 51°   Wind: 16mph
Humidity: 72%   Direction: 280°W
Pressure: 29.82"   Gusts: NA
Location:  42.3528°N, 83.8974°W
Report Text: KARB 251553Z 28014KT 7SM OVC017 16/11 A2982 RMK AO2 SLP100 T01560106
Loading
Personal Weather Stations






























Interactive Weather Map New forecast layout! Learn more

10-Day Weather Forecast

Advertisements
Track Severe Weather on mobile